Aurora Australis — VNAA — position and weather

sailwx.info

Track history (hours):
 
Tides and Currents Weather Stations Pressure Air Temp Water Temp Dewpoint Dewpoint Depression Visibility Wind Speed Wind Dir Waves Ship Positions

Oceanographic research ship Aurora Australis (Australia)

Detailed information on ship capabilities available from University of Delaware's Ocean Information Center.

Last reported at 2017-Dec-11 16:52 UTC. Time now 2017-Dec-12 23:49 UTC.
Position S 42°53' E 147°20'.

Length 94.9 m; beam 20.3 m; draft 7.9 m.

Type: Ship. MMSI: 503043000.

Date/timePositionNaut miles runAvg speedWind from/ knotsBaromVisibWave heightAir tempDewpointWater temp
2017-Dec-11 16:52S 42°53' E 147°20'0 0.0
2017-Dec-11 16:28S 42°53' E 147°20'0 0.0
2017-Dec-11 15:58S 42°53' E 147°20'0 0.0
2017-Dec-11 15:16S 42°53' E 147°20'0 0.0
2017-Dec-11 14:52S 42°53' E 147°20'0 0.1
2017-Dec-11 14:28S 42°53' E 147°21'0 0.0
2017-Dec-11 11:58S 42°53' E 147°20'0 0.0
2017-Dec-11 11:16S 42°53' E 147°20'0 0.0
2017-Dec-11 10:52S 42°53' E 147°20'0 0.0
2017-Dec-11 09:59S 42°53' E 147°20'0 0.0
2017-Dec-11 09:28S 42°53' E 147°20'0 0.0
2017-Dec-11 04:41S 42°53' E 147°20'0 0.0
2017-Dec-11 04:28S 42°53' E 147°20'0 0.0
2017-Dec-11 03:52S 42°53' E 147°20'0 0.0
2017-Dec-11 03:22S 42°53' E 147°20'0 0.0
2017-Dec-11 02:58S 42°53' E 147°20'0 0.1
2017-Dec-11 02:28S 42°53' E 147°21'0 0.1
2017-Dec-11 01:58S 42°53' E 147°20'0 0.0
2017-Dec-10 23:22S 42°53' E 147°20'0 0.0
2017-Dec-10 22:58S 42°53' E 147°20'0 0.0
2017-Dec-10 22:22S 42°53' E 147°20'0 0.0
2017-Dec-10 21:52S 42°53' E 147°20'0 0.0
2017-Dec-10 21:28S 42°53' E 147°20'0 0.0
2017-Dec-10 20:40S 42°53' E 147°20'0 0.0
2017-Dec-10 20:16S 42°53' E 147°20'0 0.0
2017-Dec-10 19:40S 42°53' E 147°20'0 0.0
2017-Dec-10 19:10S 42°53' E 147°20'0 0.0
2017-Dec-10 18:58S 42°53' E 147°20'0 0.0
2017-Dec-10 18:16S 42°53' E 147°20'0 0.0
2017-Dec-10 17:59S 42°53' E 147°20'0 0.0
2017-Dec-10 17:22S 42°53' E 147°20'0 0.0
2017-Dec-10 16:52S 42°53' E 147°20'0 0.0
2017-Dec-09 02:58S 42°53' E 147°20'0 0.1
2017-Dec-09 02:28S 42°53' E 147°21'0 0.1
2017-Dec-09 01:58S 42°53' E 147°20'0 0.0
2017-Dec-09 01:22S 42°53' E 147°20'0 0.0
2017-Dec-09 00:58S 42°53' E 147°20'0 0.0
2017-Dec-09 00:28S 42°53' E 147°20'0 0.0
2017-Dec-08 17:40S 42°53' E 147°20'0 0.2
2017-Dec-08 17:28S 42°53' E 147°21'0 0.0
2017-Dec-08 13:34S 42°53' E 147°20'0 0.0
2017-Dec-08 02:22S 42°53' E 147°21'0 0.1
2017-Dec-08 01:52S 42°53' E 147°20'0 0.0
2017-Dec-08 01:22S 42°53' E 147°20'0 0.0
2017-Dec-08 00:52S 42°53' E 147°20'0 0.0
2017-Dec-08 00:16S 42°53' E 147°20'0 0.0
2017-Dec-07 05:46S 42°53' E 147°21'0 0.1
2017-Dec-07 05:22S 42°53' E 147°20'0 0.0
2017-Dec-07 03:28S 42°53' E 147°20'  
2017-Dec-04 04:04S 42°52' E 147°21'1 8.1
2017-Dec-04 03:56S 42°53' E 147°21'0 0.0
2017-Dec-02 22:33S 42°53' E 147°21'0 1.7
2017-Dec-02 22:28S 42°53' E 147°21'13 6.8
2017-Dec-02 20:33S 43°06' E 147°26'1 6.5
2017-Dec-02 20:24S 43°06' E 147°27'6 5.9
2017-Dec-02 19:23S 43°11' E 147°32'5 6.6
2017-Dec-02 18:41S 43°15' E 147°35'1 6.8
2017-Dec-02 18:28S 43°16' E 147°36'4 6.9
2017-Dec-02 17:57S 43°20' E 147°38'0 0.3
2017-Dec-02 16:41S 43°20' E 147°37'1 2.8
2017-Dec-02 16:25S 43°19' E 147°37'2 3.1
2017-Dec-02 15:41S 43°17' E 147°35'1 3.1
2017-Dec-02 15:13S 43°16' E 147°34'0 1.0
2017-Dec-02 15:00S 43°16' E 147°34'2 4.5
2017-Dec-02 14:28S 43°18' E 147°36'2 4.6
2017-Dec-02 14:00S 43°19' E 147°38'39 7.7
2017-Dec-02 09:00S 43°42' E 146°54'29 9.5 150 / 261011.6 5.4 12.9 7.614.4
2017-Dec-02 06:00S 43°54' E 146°18'3511.7 150 / 281011.610.8 13.3 7.314.8
2017-Dec-02 03:00S 44°12' E 145°36'28 9.5 150 / 231013.510.8 12.7 7.214.7
2017-Dec-02 00:00S 44°24' E 145°00'3511.6 140 / 221015.310.8 12.5 4.914.6
2017-Dec-01 21:00S 44°42' E 144°18'   160 / 201015.310.8 11.8 3.014.7
Track history (hours):
 
Tides and Currents Weather Stations Pressure Air Temp Water Temp Dewpoint Dewpoint Depression Visibility Wind Speed Wind Dir Waves Ship Positions

Oceanographic research ship Aurora Australis (Australia)

Detailed information on ship capabilities available from University of Delaware's Ocean Information Center.

Last reported at 2017-Dec-11 16:52 UTC. Time now 2017-Dec-12 23:49 UTC.
Position S 42°53' E 147°20'.

Length 94.9 m; beam 20.3 m; draft 7.9 m.

Type: Ship. MMSI: 503043000.

Date/timePositionNaut miles runAvg speedWind from/ knotsBaromVisibWave heightAir tempDewpointWater temp
2017-Dec-11 16:52S 42°53' E 147°20'0 0.0
2017-Dec-11 16:28S 42°53' E 147°20'0 0.0
2017-Dec-11 15:58S 42°53' E 147°20'0 0.0
2017-Dec-11 15:16S 42°53' E 147°20'0 0.0
2017-Dec-11 14:52S 42°53' E 147°20'0 0.1
2017-Dec-11 14:28S 42°53' E 147°21'0 0.0
2017-Dec-11 11:58S 42°53' E 147°20'0 0.0
2017-Dec-11 11:16S 42°53' E 147°20'0 0.0
2017-Dec-11 10:52S 42°53' E 147°20'0 0.0
2017-Dec-11 09:59S 42°53' E 147°20'0 0.0
2017-Dec-11 09:28S 42°53' E 147°20'0 0.0
2017-Dec-11 04:41S 42°53' E 147°20'0 0.0
2017-Dec-11 04:28S 42°53' E 147°20'0 0.0
2017-Dec-11 03:52S 42°53' E 147°20'0 0.0
2017-Dec-11 03:22S 42°53' E 147°20'0 0.0
2017-Dec-11 02:58S 42°53' E 147°20'0 0.1
2017-Dec-11 02:28S 42°53' E 147°21'0 0.1
2017-Dec-11 01:58S 42°53' E 147°20'0 0.0
2017-Dec-10 23:22S 42°53' E 147°20'0 0.0
2017-Dec-10 22:58S 42°53' E 147°20'0 0.0
2017-Dec-10 22:22S 42°53' E 147°20'0 0.0
2017-Dec-10 21:52S 42°53' E 147°20'0 0.0
2017-Dec-10 21:28S 42°53' E 147°20'0 0.0
2017-Dec-10 20:40S 42°53' E 147°20'0 0.0
2017-Dec-10 20:16S 42°53' E 147°20'0 0.0
2017-Dec-10 19:40S 42°53' E 147°20'0 0.0
2017-Dec-10 19:10S 42°53' E 147°20'0 0.0
2017-Dec-10 18:58S 42°53' E 147°20'0 0.0
2017-Dec-10 18:16S 42°53' E 147°20'0 0.0
2017-Dec-10 17:59S 42°53' E 147°20'0 0.0
2017-Dec-10 17:22S 42°53' E 147°20'0 0.0
2017-Dec-10 16:52S 42°53' E 147°20'0 0.0
2017-Dec-09 02:58S 42°53' E 147°20'0 0.1
2017-Dec-09 02:28S 42°53' E 147°21'0 0.1
2017-Dec-09 01:58S 42°53' E 147°20'0 0.0
2017-Dec-09 01:22S 42°53' E 147°20'0 0.0
2017-Dec-09 00:58S 42°53' E 147°20'0 0.0
2017-Dec-09 00:28S 42°53' E 147°20'0 0.0
2017-Dec-08 17:40S 42°53' E 147°20'0 0.2
2017-Dec-08 17:28S 42°53' E 147°21'0 0.0
2017-Dec-08 13:34S 42°53' E 147°20'0 0.0
2017-Dec-08 02:22S 42°53' E 147°21'0 0.1
2017-Dec-08 01:52S 42°53' E 147°20'0 0.0
2017-Dec-08 01:22S 42°53' E 147°20'0 0.0
2017-Dec-08 00:52S 42°53' E 147°20'0 0.0
2017-Dec-08 00:16S 42°53' E 147°20'0 0.0
2017-Dec-07 05:46S 42°53' E 147°21'0 0.1
2017-Dec-07 05:22S 42°53' E 147°20'0 0.0
2017-Dec-07 03:28S 42°53' E 147°20'  
2017-Dec-04 04:04S 42°52' E 147°21'1 8.1
2017-Dec-04 03:56S 42°53' E 147°21'0 0.0
2017-Dec-02 22:33S 42°53' E 147°21'0 1.7
2017-Dec-02 22:28S 42°53' E 147°21'13 6.8
2017-Dec-02 20:33S 43°06' E 147°26'1 6.5
2017-Dec-02 20:24S 43°06' E 147°27'6 5.9
2017-Dec-02 19:23S 43°11' E 147°32'5 6.6
2017-Dec-02 18:41S 43°15' E 147°35'1 6.8
2017-Dec-02 18:28S 43°16' E 147°36'4 6.9
2017-Dec-02 17:57S 43°20' E 147°38'0 0.3
2017-Dec-02 16:41S 43°20' E 147°37'1 2.8
2017-Dec-02 16:25S 43°19' E 147°37'2 3.1
2017-Dec-02 15:41S 43°17' E 147°35'1 3.1
2017-Dec-02 15:13S 43°16' E 147°34'0 1.0
2017-Dec-02 15:00S 43°16' E 147°34'2 4.5
2017-Dec-02 14:28S 43°18' E 147°36'2 4.6
2017-Dec-02 14:00S 43°19' E 147°38'39 7.7
2017-Dec-02 09:00S 43°42' E 146°54'29 9.5 150 / 261011.6 5.4 12.9 7.614.4
2017-Dec-02 06:00S 43°54' E 146°18'3511.7 150 / 281011.610.8 13.3 7.314.8
2017-Dec-02 03:00S 44°12' E 145°36'28 9.5 150 / 231013.510.8 12.7 7.214.7
2017-Dec-02 00:00S 44°24' E 145°00'3511.6 140 / 221015.310.8 12.5 4.914.6
2017-Dec-01 21:00S 44°42' E 144°18'   160 / 201015.310.8 11.8 3.014.7

Dump ship's entire track history